createdAt,value
2023-05-25T11:40:52.143Z,37.7
2023-05-25T11:46:44.786Z,38.3
2023-05-25T11:52:38.248Z,40.8
2023-05-25T12:05:22.676Z,49.6
2023-05-25T12:11:13.849Z,44.7
2023-05-25T12:16:50.366Z,44.7
2023-05-25T12:22:43.513Z,45.9
2023-05-25T12:28:46.153Z,49.2
2023-05-25T12:34:38.165Z,50.3
2023-05-25T12:40:32.535Z,50.6
2023-05-25T12:46:25.044Z,50.4
2023-05-25T12:52:18.335Z,50.9
2023-05-25T12:58:10.384Z,51
2023-05-25T13:04:02.188Z,51.1
2023-05-25T13:09:54.276Z,51
2023-05-25T13:15:31.454Z,50.9
2023-05-25T13:21:26.301Z,50.3
2023-05-25T13:27:18.118Z,49.8
2023-05-25T13:33:10.697Z,49.6
2023-05-25T13:39:01.982Z,49.6
2023-05-25T13:44:39.676Z,49.4
2023-05-25T13:50:48.716Z,49.1
2023-05-25T13:56:23.974Z,48.6
2023-05-25T14:02:15.333Z,48.2
2023-05-25T14:08:08.188Z,46.9
2023-05-25T14:14:03.417Z,47.3
2023-05-25T14:19:51.301Z,48.5
2023-05-25T14:25:52.981Z,48.9
2023-05-25T14:31:30.460Z,45.6
2023-05-25T14:37:08.380Z,45.2
2023-05-25T14:43:00.847Z,44.8
2023-05-25T14:49:07.154Z,44.4
2023-05-25T14:54:44.454Z,44.1
2023-05-25T15:00:23.195Z,43.8
2023-05-25T15:06:00.220Z,43.4
2023-05-25T15:11:51.153Z,42.9
2023-05-25T15:17:43.405Z,42.4
2023-05-25T15:23:34.765Z,42
2023-05-25T15:29:32.686Z,41.6
2023-05-25T15:35:43.558Z,41
2023-05-25T15:41:19.057Z,40.7
2023-05-25T15:47:10.736Z,39.6
2023-05-25T15:53:03.038Z,37.4
2023-05-25T15:58:56.533Z,35
2023-05-25T16:04:48.893Z,33.2
2023-05-25T16:10:42.512Z,31.7
2023-05-25T16:16:36.166Z,30.4
2023-05-25T16:22:33.061Z,29.2
2023-05-25T16:28:09.674Z,26.4
2023-05-25T16:34:01.789Z,24.2
2023-05-25T16:39:53.408Z,22.9
2023-05-25T16:45:47.703Z,21.9
2023-05-25T16:51:24.258Z,21.4
2023-05-25T16:57:18.022Z,20.7
2023-05-25T17:03:10.406Z,19.8
2023-05-25T17:09:02.509Z,18.9
2023-05-25T17:14:53.644Z,18.3
2023-05-25T17:20:46.124Z,17.8
2023-05-25T17:26:21.777Z,17.4
2023-05-25T17:37:38.671Z,16.8
2023-05-25T17:43:13.871Z,16.6
2023-05-25T17:49:05.907Z,16.3
2023-05-25T17:54:42.424Z,16.2
2023-05-25T18:00:34.282Z,16
2023-05-25T18:06:29.165Z,15.9
2023-05-25T18:12:05.511Z,15.8
2023-05-25T18:17:40.774Z,15.7
2023-05-25T18:23:32.705Z,15.5
2023-05-25T18:29:08.874Z,15.4
2023-05-25T18:34:59.947Z,15.4
2023-05-25T18:40:36.379Z,15.3
2023-05-25T18:46:28.106Z,15.2
2023-05-25T18:52:18.953Z,15.2
2023-05-25T18:57:55.115Z,15.1
2023-05-25T19:03:16.606Z,15.1
2023-05-25T19:09:06.914Z,15.1
2023-05-25T19:14:58.314Z,15
2023-05-25T19:20:51.237Z,14.9
2023-05-25T19:26:46.079Z,14.8
2023-05-25T19:32:23.507Z,14.8
2023-05-25T19:38:26.560Z,14.8
2023-05-25T19:44:17.485Z,14.6
2023-05-25T19:50:10.686Z,14.6
2023-05-25T19:56:03.501Z,14.4
2023-05-25T20:01:49.329Z,14.4
2023-05-25T20:07:27.013Z,14.3
2023-05-25T20:13:18.028Z,14.2
2023-05-25T20:19:09.475Z,14.1
2023-05-25T20:25:01.175Z,13.9
2023-05-25T20:30:37.568Z,13.9
2023-05-25T20:36:30.662Z,13.8
2023-05-25T20:42:22.109Z,13.8
2023-05-25T20:47:57.925Z,13.6
2023-05-25T20:53:02.653Z,13.6
2023-05-25T20:58:54.169Z,13.4
2023-05-25T21:04:31.924Z,13.4
2023-05-25T21:10:22.105Z,13.3
2023-05-25T21:15:42.889Z,13.2
2023-05-25T21:21:34.936Z,13.2
2023-05-25T21:27:10.438Z,13.1
2023-05-25T21:32:31.168Z,13
2023-05-25T21:38:07.214Z,12.9
2023-05-25T21:43:28.036Z,12.8
2023-05-25T21:49:04.433Z,12.6
2023-05-25T21:54:40.755Z,12.5
2023-05-25T22:00:16.445Z,12.4
2023-05-25T22:05:55.963Z,12.3
2023-05-25T22:11:32.825Z,12.1
2023-05-25T22:17:07.401Z,12
2023-05-25T22:22:58.963Z,11.9
2023-05-25T22:28:35.158Z,11.9
2023-05-25T22:34:12.052Z,11.8
2023-05-25T22:39:32.428Z,11.6
2023-05-25T22:45:08.164Z,11.5
2023-05-25T22:50:28.883Z,11.4
2023-05-25T22:56:05.040Z,11.3
2023-05-25T23:01:25.991Z,11.3
2023-05-25T23:06:48.153Z,11.1
2023-05-25T23:12:39.686Z,11
2023-05-25T23:18:00.538Z,11
2023-05-25T23:23:21.656Z,11
2023-05-25T23:28:58.165Z,11
2023-05-25T23:34:19.115Z,10.9
2023-05-25T23:39:58.351Z,10.8
2023-05-25T23:45:49.950Z,10.8
2023-05-25T23:51:27.102Z,10.7
2023-05-25T23:57:18.608Z,10.6
